Warning: session_start() [function.session-start]: open(/home/content/96/14010696/tmp/sess_e7uhokecmdbkbjvoe3tdoi0qa7, O_RDWR) failed: No such file or directory (2) in /home/content/96/14010696/html/weather/Settings.php on line 336

Warning: session_start() [function.session-start]: Cannot send session cookie - headers already sent by (output started at /home/content/96/14010696/html/weather/Settings.php:336) in /home/content/96/14010696/html/weather/Settings.php on line 336

Warning: session_start() [function.session-start]: Cannot send session cache limiter - headers already sent (output started at /home/content/96/14010696/html/weather/Settings.php:336) in /home/content/96/14010696/html/weather/Settings.php on line 336

Warning: Cannot modify header information - headers already sent by (output started at /home/content/96/14010696/html/weather/Settings.php:336) in /home/content/96/14010696/html/weather/top.php on line 43
Custom file does not exist C:\wdisplay\webfiles\testtags.txt Page13Designs.com - Nearby METAR Reports

Nearby METAR Reports

 

KLEE - Leesburg, Florida, USA
Distance from station: NNE 9mi, 14km
Updated: Sun, 19-Aug-2018 4:53am EDT
Clear
Clear
 Wind from calm
Wind: Calm
Temperature: 79°F , 26°C
Dew Point: 75°F , 24°C
Humidity: 89%
Barometer: 30.01 inHg , 1016.3 hPa
Clouds: Clear
Visibility: 10 miles , 16 km
2018/08/19 08:53 KLEE 190853Z AUTO 00000KT 10SM CLR 26/24 A3001 RMK AO2 SLP161 T02610244 56016
KVVG - The Villages, Florida, USA
Distance from station: NNW 19mi, 30km
Updated: Wed, 14-Feb-2018 2:10pm EST
NOT Current

 Wind from calm
Wind: Calm
Temperature: 73°F , 23°C
Dew Point: 66°F , 19°C
Humidity: 78%
Barometer: 30.29 inHg , 1025.7 hPa
Visibility: 10 miles , 16 km
2018/02/14 19:10 KVVG 141910Z AUTO 00000KT 10SM 23/19 A3029 RMK A01
 
KINF - Inverness, Florida, USA
Distance from station: WNW 29mi, 46km
Updated: Sun, 19-Aug-2018 5:35am EDT
Mist, Clear
Mist, Clear
 Wind from calm
Wind: Calm
Temperature: 73°F , 23°C
Dew Point: 73°F , 23°C
Humidity: 100%
Barometer: 30.01 inHg , 1016.3 hPa
Summary: Mist
Clouds: Clear
Visibility: 5 miles , 8 km
2018/08/19 09:35 KINF 190935Z AUTO 00000KT 5SM BR CLR 23/23 A3001 RMK AO2
KORL - Orlando, Florida, USA
Distance from station: ESE 34mi, 54km
Updated: Sun, 19-Aug-2018 4:53am EDT
Clear
Clear
 Wind from calm
Wind: Calm
Temperature: 79°F , 26°C
Dew Point: 75°F , 24°C
Humidity: 89%
Barometer: 30.01 inHg , 1016.3 hPa
Clouds: Clear
Visibility: 10 miles , 16 km
2018/08/19 08:53 KORL 190853Z AUTO 00000KT 10SM CLR 26/24 A3001 RMK AO2 SLP163 T02560244 56016
 
KZPH - Zephyrhills, Florida, USA
Distance from station: SSW 36mi, 59km
Updated: Sun, 19-Aug-2018 5:35am EDT
Clear
Clear
 Wind from calm
Wind: Calm
Temperature: 73°F , 23°C
Dew Point: 72°F , 22°C
Humidity: 94%
Barometer: 30.02 inHg , 1016.6 hPa
Clouds: Clear
Visibility: 10 miles , 16 km
2018/08/19 09:35 KZPH 190935Z AUTO 00000KT 10SM CLR 23/22 A3002 RMK AO2 T02250223
KMCO - Orlando, Florida, USA
Distance from station: ESE 37mi, 60km
Updated: Sun, 19-Aug-2018 4:53am EDT
Few Clouds
Few Clouds
 Wind from S
Wind: S 6 mph , 9 km/h
Temperature: 75°F , 24°C
Dew Point: 75°F , 24°C
Humidity: 100%
Barometer: 30.01 inHg , 1016.3 hPa
Clouds: Few Clouds
Visibility: 10 miles , 16 km
Cloud details: Few Clouds 25000 ft
2018/08/19 08:53 KMCO 190853Z 17005KT 10SM FEW250 24/24 A3001 RMK AO2 SLP160 T02440239 56017 $
 
KISM - Kissimmee/Orland, Florida, USA
Distance from station: SE 39mi, 62km
Updated: Sun, 19-Aug-2018 4:56am EDT
Clear
Clear
 Wind from S
Wind: S 3 mph , 6 km/h
Temperature: 75°F , 24°C
Dew Point: 73°F , 23°C
Humidity: 94%
Barometer: 30.02 inHg , 1016.6 hPa
Clouds: Clear
Visibility: 10 miles , 16 km
2018/08/19 08:56 KISM 190856Z AUTO 18003KT 10SM CLR 24/23 A3002 RMK AO2 SLP165 T02440233 56019
KBKV - Brooksville, Florida, USA
Distance from station: WSW 39mi, 63km
Updated: Sun, 19-Aug-2018 4:53am EDT
Clear
Clear
 Wind from SE
Wind: SE 3 mph , 6 km/h
Temperature: 75°F , 24°C
Dew Point: 73°F , 23°C
Humidity: 94%
Barometer: 30.01 inHg , 1016.3 hPa
Clouds: Clear
Visibility: 10 miles , 16 km
2018/08/19 08:53 KBKV 190853Z AUTO 13003KT 10SM CLR 24/23 A3001 RMK AO2 SLP159 T02390228 56018
 
KOCF - Ocala Muni, Florida, USA
Distance from station: NW 39mi, 63km
Updated: Sun, 19-Aug-2018 4:51am EDT
Mist, Clear
Mist, Clear
 Wind from calm
Wind: Calm
Temperature: 73°F , 23°C
Dew Point: 73°F , 23°C
Humidity: 100%
Barometer: 30.02 inHg , 1016.6 hPa
Summary: Mist
Clouds: Clear
Visibility: 5 miles , 8 km
2018/08/19 08:51 KOCF 190851Z AUTO 00000KT 5SM BR CLR 23/23 A3002 RMK AO2 SLP167 T02330233 56013 $
KSFB - Sanford/Orlando, Florida, USA
Distance from station: E 39mi, 63km
Updated: Sun, 19-Aug-2018 4:53am EDT
Clear
Clear
 Wind from S
Wind: S 3 mph , 6 km/h
Temperature: 79°F , 26°C
Dew Point: 75°F , 24°C
Humidity: 89%
Barometer: 30.00 inHg , 1015.9 hPa
Clouds: Clear
Visibility: 10 miles , 16 km
2018/08/19 08:53 KSFB 190853Z AUTO 19003KT 10SM CLR 26/24 A3000 RMK AO2 SLP157 T02560244 56015
 
KDED - Deland, Florida, USA
Distance from station: NE 43mi, 70km
Updated: Sun, 19-Aug-2018 5:35am EDT
Clear
Clear
 Wind from calm
Wind: Calm
Temperature: 75°F , 24°C
Dew Point: 73°F , 23°C
Humidity: 94%
Barometer: 30.01 inHg , 1016.3 hPa
Clouds: Clear
Visibility: 10 miles , 16 km
2018/08/19 09:35 KDED 190935Z AUTO 00000KT 10SM CLR 24/23 A3001 RMK AO2
KCGC - Crystal River, Florida, USA
Distance from station: WNW 44mi, 71km
Updated: Sun, 19-Aug-2018 5:35am EDT

 Wind from calm
Wind: Calm
Temperature: 73°F , 23°C
Dew Point: 73°F , 23°C
Humidity: 100%
Barometer: 30.01 inHg , 1016.3 hPa
2018/08/19 09:35 KCGC 190935Z AUTO 00000KT 23/23 A3001 RMK AO2 PWINO
 
KGIF - Winter Haven, Florida, USA
Distance from station: S 44mi, 71km
Updated: Sun, 19-Aug-2018 4:53am EDT
Clear
Clear
 Wind from SE
Wind: SE 3 mph , 6 km/h
Temperature: 79°F , 26°C
Dew Point: 75°F , 24°C
Humidity: 89%
Barometer: 30.02 inHg , 1016.6 hPa
Clouds: Clear
Visibility: 10 miles , 16 km
2018/08/19 08:53 KGIF 190853Z AUTO 13003KT 10SM CLR 26/24 A3002 RMK AO2 SLP161 T02560239 56018